createdAt,value
2019-01-14T00:02:23.103Z,25.32
2019-01-14T00:04:55.613Z,24.50
2019-01-14T00:07:27.377Z,27.73
2019-01-14T00:09:59.114Z,28.52
2019-01-14T00:12:30.581Z,23.47
2019-01-14T00:15:06.329Z,29.57
2019-01-14T00:17:37.878Z,28.17
2019-01-14T00:20:13.886Z,29.15
2019-01-14T00:22:45.295Z,25.48
2019-01-14T00:25:16.643Z,28.52
2019-01-14T00:27:47.959Z,27.52
2019-01-14T00:30:19.242Z,24.75
2019-01-14T00:32:50.649Z,33.08
2019-01-14T00:35:21.963Z,30.40
2019-01-14T00:37:53.541Z,28.75
2019-01-14T00:40:24.858Z,25.30
2019-01-14T00:42:56.343Z,23.92
2019-01-14T00:45:27.628Z,26.48
2019-01-14T00:47:58.929Z,21.45
2019-01-14T00:50:30.191Z,25.95
2019-01-14T00:53:01.523Z,27.45
2019-01-14T00:55:32.845Z,28.65
2019-01-14T00:58:04.158Z,27.15
2019-01-14T01:00:35.550Z,24.87
2019-01-14T01:03:06.980Z,27.13
2019-01-14T01:05:38.270Z,31.55
2019-01-14T01:08:09.608Z,28.20
2019-01-14T01:10:41.036Z,25.37
2019-01-14T01:13:12.625Z,31.73
2019-01-14T01:15:43.924Z,24.95
2019-01-14T01:18:15.425Z,33.83
2019-01-14T01:20:47.118Z,30.30
2019-01-14T01:23:18.758Z,32.25
2019-01-14T01:25:50.036Z,26.30
2019-01-14T01:28:21.646Z,31.70
2019-01-14T01:30:52.964Z,24.95
2019-01-14T01:33:24.675Z,26.10
2019-01-14T01:35:56.091Z,19.82
2019-01-14T01:38:27.482Z,24.60
2019-01-14T01:40:58.793Z,18.48
2019-01-14T01:43:30.119Z,33.15
2019-01-14T01:46:01.562Z,28.52
2019-01-14T01:48:32.850Z,23.60
2019-01-14T01:51:04.137Z,30.40
2019-01-14T01:53:35.641Z,26.57
2019-01-14T01:56:06.980Z,20.57
2019-01-14T01:58:38.299Z,22.82
2019-01-14T02:01:09.631Z,26.27
2019-01-14T02:03:40.905Z,24.70
2019-01-14T02:06:12.210Z,21.30
2019-01-14T02:08:43.497Z,21.35
2019-01-14T02:11:15.175Z,29.10
2019-01-14T02:13:47.511Z,24.07
2019-01-14T02:16:18.877Z,24.30
2019-01-14T02:18:51.495Z,24.90
2019-01-14T02:21:22.901Z,23.20
2019-01-14T02:23:55.989Z,17.90
2019-01-14T02:26:27.333Z,22.77
2019-01-14T02:28:58.670Z,20.02
2019-01-14T02:31:29.964Z,21.40
2019-01-14T02:34:01.349Z,24.90
2019-01-14T02:36:32.785Z,16.52
2019-01-14T02:39:06.462Z,26.97
2019-01-14T02:41:37.803Z,26.35
2019-01-14T02:44:09.094Z,24.60
2019-01-14T02:46:40.438Z,22.30
2019-01-14T02:49:11.748Z,21.87
2019-01-14T02:51:43.051Z,40.40
2019-01-14T02:54:14.490Z,17.73
2019-01-14T02:56:45.874Z,18.37
2019-01-14T02:59:17.276Z,21.02
2019-01-14T03:01:48.590Z,21.93
2019-01-14T03:04:19.883Z,19.70
2019-01-14T03:06:57.722Z,23.38
2019-01-14T03:09:24.479Z,30.70
2019-01-14T03:11:55.860Z,25.85
2019-01-14T03:14:27.129Z,26.73
2019-01-14T03:16:58.450Z,17.02
2019-01-14T03:24:58.168Z,17.42
2019-01-14T03:27:29.526Z,19.32
2019-01-14T03:30:00.985Z,20.48
2019-01-14T03:32:32.263Z,27.40
2019-01-14T03:35:05.776Z,19.23
2019-01-14T03:37:37.146Z,27.60
2019-01-14T03:40:11.974Z,17.82
2019-01-14T03:42:43.240Z,25.50
2019-01-14T03:45:14.546Z,18.32
2019-01-14T03:47:45.846Z,19.05
2019-01-14T03:50:19.525Z,26.87
2019-01-14T03:52:50.788Z,21.42
2019-01-14T03:55:22.105Z,21.62
2019-01-14T03:57:53.448Z,25.82
2019-01-14T04:00:24.783Z,22.77
2019-01-14T04:02:56.092Z,18.92
2019-01-14T04:05:27.501Z,20.92
2019-01-14T04:07:58.879Z,18.12
2019-01-14T04:10:30.373Z,13.28
2019-01-14T04:13:01.692Z,10.63
2019-01-14T04:15:33.095Z,17.23
2019-01-14T04:18:04.673Z,12.07
2019-01-14T04:20:35.981Z,10.50
2019-01-14T04:23:07.351Z,11.30
2019-01-14T04:25:39.869Z,11.05
2019-01-14T04:28:11.174Z,10.82
2019-01-14T04:30:43.807Z,7.90
2019-01-14T04:33:15.160Z,11.45
2019-01-14T04:35:46.527Z,10.60
2019-01-14T04:38:17.806Z,11.03
2019-01-14T04:40:49.120Z,11.50
2019-01-14T04:43:20.425Z,9.58
2019-01-14T04:45:51.784Z,10.95
2019-01-14T04:48:23.085Z,12.98
2019-01-14T04:50:54.351Z,7.10
2019-01-14T04:53:25.834Z,9.28
2019-01-14T04:55:57.157Z,9.13
2019-01-14T04:58:28.580Z,9.70
2019-01-14T05:00:59.933Z,7.40
2019-01-14T05:03:31.254Z,10.48
2019-01-14T05:06:02.566Z,15.13
2019-01-14T05:08:33.849Z,12.33
2019-01-14T05:11:05.270Z,8.38
2019-01-14T05:13:36.808Z,13.13
2019-01-14T05:16:08.136Z,9.83
2019-01-14T05:18:39.526Z,11.83
2019-01-14T05:21:11.352Z,11.03
2019-01-14T05:26:14.238Z,11.18
2019-01-14T05:29:04.367Z,21.85
2019-01-14T05:31:35.699Z,19.07
2019-01-14T05:34:06.971Z,14.87
2019-01-14T05:36:38.317Z,11.38
2019-01-14T05:39:09.613Z,10.82
2019-01-14T05:41:40.940Z,12.65
2019-01-14T05:44:12.216Z,6.60
2019-01-14T05:46:43.754Z,13.03
2019-01-14T05:49:18.250Z,11.55
2019-01-14T05:51:49.554Z,10.60
2019-01-14T05:54:20.944Z,10.93
2019-01-14T05:56:52.288Z,15.58
2019-01-14T05:59:42.139Z,20.90
2019-01-14T06:02:13.445Z,19.35
2019-01-14T06:04:44.894Z,13.50
2019-01-14T06:07:16.158Z,22.20
2019-01-14T06:09:47.489Z,16.70
2019-01-14T06:12:18.767Z,16.65
2019-01-14T06:14:50.062Z,18.07
2019-01-14T06:17:21.361Z,16.52
2019-01-14T06:19:53.377Z,34.78
2019-01-14T06:22:24.799Z,25.12
2019-01-14T06:24:56.103Z,20.20
2019-01-14T06:27:27.503Z,22.80
2019-01-14T06:29:58.790Z,20.95
2019-01-14T06:32:30.264Z,19.40
2019-01-14T06:35:01.592Z,33.25
2019-01-14T06:37:34.474Z,16.27
2019-01-14T06:40:10.970Z,16.05
2019-01-14T06:42:42.264Z,20.92
2019-01-14T06:45:13.896Z,23.52
2019-01-14T06:50:18.137Z,18.37
2019-01-14T06:52:49.421Z,14.50
2019-01-14T06:55:20.745Z,17.52
2019-01-14T06:57:52.051Z,21.33
2019-01-14T07:00:29.117Z,18.93
2019-01-14T07:03:00.531Z,18.27
2019-01-14T07:05:32.003Z,22.30
2019-01-14T07:08:03.316Z,22.93
2019-01-14T07:10:34.638Z,16.80
2019-01-14T07:13:05.921Z,11.08
2019-01-14T07:15:37.267Z,14.83
2019-01-14T07:18:08.558Z,16.62
2019-01-14T07:20:39.887Z,16.67
2019-01-14T07:23:11.191Z,16.17
2019-01-14T07:25:42.575Z,11.55
2019-01-14T07:28:13.847Z,17.70
2019-01-14T07:30:45.246Z,9.15
2019-01-14T07:33:16.558Z,17.40
2019-01-14T07:35:47.849Z,15.98
2019-01-14T07:38:21.172Z,17.70
2019-01-14T07:40:52.590Z,11.43
2019-01-14T07:43:24.456Z,14.47
2019-01-14T07:45:55.763Z,13.70
2019-01-14T07:48:27.102Z,12.63
2019-01-14T07:50:58.552Z,15.72
2019-01-14T07:53:29.880Z,12.85
2019-01-14T07:56:01.340Z,11.93
2019-01-14T07:58:33.016Z,11.25
2019-01-14T08:01:04.347Z,11.90
2019-01-14T08:03:35.665Z,10.98
2019-01-14T08:06:06.976Z,12.07
2019-01-14T08:08:38.245Z,12.78
2019-01-14T08:11:09.557Z,13.55
2019-01-14T08:13:40.968Z,11.45
2019-01-14T08:16:12.343Z,10.93
2019-01-14T08:18:43.638Z,11.48
2019-01-14T08:21:15.057Z,12.63
2019-01-14T08:23:46.303Z,6.85
2019-01-14T08:26:17.706Z,13.10
2019-01-14T08:28:49.034Z,13.55
2019-01-14T08:31:20.293Z,19.55
2019-01-14T08:33:51.553Z,14.60
2019-01-14T08:36:22.878Z,12.10
2019-01-14T08:38:54.399Z,11.80
2019-01-14T08:41:45.993Z,14.50
2019-01-14T08:44:18.121Z,17.52
2019-01-14T08:46:49.460Z,13.43
2019-01-14T08:49:20.803Z,14.10
2019-01-14T08:51:52.138Z,16.40
2019-01-14T08:54:23.459Z,15.78
2019-01-14T08:59:44.475Z,12.88
2019-01-14T09:02:15.775Z,19.65
2019-01-14T09:04:47.051Z,13.75
2019-01-14T09:07:18.427Z,13.68
2019-01-14T09:09:49.698Z,11.75
2019-01-14T09:12:21.043Z,13.03
2019-01-14T09:14:52.305Z,14.50
2019-01-14T09:17:23.667Z,12.20
2019-01-14T09:19:54.979Z,13.38
2019-01-14T09:25:16.040Z,14.98
2019-01-14T09:27:47.347Z,19.50
2019-01-14T09:30:21.126Z,19.27
2019-01-14T09:32:52.451Z,10.82
2019-01-14T09:35:23.741Z,11.33
2019-01-14T09:37:55.050Z,9.25
2019-01-14T09:40:26.498Z,7.80
2019-01-14T09:42:57.787Z,8.05
2019-01-14T09:45:29.088Z,9.43
2019-01-14T09:48:00.463Z,11.15
2019-01-14T09:50:31.716Z,8.80
2019-01-14T09:53:03.051Z,8.35
2019-01-14T09:55:34.446Z,8.90
2019-01-14T09:58:05.808Z,6.55
2019-01-14T10:00:37.230Z,10.38
2019-01-14T10:03:08.543Z,10.35
2019-01-14T10:05:39.779Z,8.35
2019-01-14T10:08:11.098Z,9.68
2019-01-14T10:10:42.564Z,12.98
2019-01-14T10:13:13.891Z,10.78
2019-01-14T10:15:45.166Z,14.43
2019-01-14T10:18:16.588Z,18.82
2019-01-14T10:20:48.019Z,16.45
2019-01-14T10:23:19.329Z,14.93
2019-01-14T10:25:50.811Z,19.60
2019-01-14T10:28:22.103Z,19.32
2019-01-14T10:30:53.528Z,15.30
2019-01-14T10:33:24.804Z,14.23
2019-01-14T10:35:56.101Z,19.07
2019-01-14T10:38:27.398Z,12.75
2019-01-14T10:40:58.715Z,20.62
2019-01-14T10:43:30.046Z,11.38
2019-01-14T10:46:01.336Z,22.52
2019-01-14T10:48:32.753Z,14.50
2019-01-14T10:51:04.056Z,18.60
2019-01-14T10:53:35.400Z,18.70
2019-01-14T10:56:06.659Z,20.02
2019-01-14T10:58:37.984Z,16.20
2019-01-14T11:01:09.276Z,16.35
2019-01-14T11:03:40.686Z,9.43
2019-01-14T11:06:11.980Z,10.95
2019-01-14T11:08:45.338Z,10.58
2019-01-14T11:11:16.701Z,9.20
2019-01-14T11:13:48.023Z,6.50
2019-01-14T11:16:19.453Z,7.08
2019-01-14T11:18:50.756Z,5.85
2019-01-14T11:21:22.111Z,9.88
2019-01-14T11:23:53.566Z,5.28
2019-01-14T11:26:24.954Z,7.62
2019-01-14T11:28:56.258Z,1.67
2019-01-14T11:31:27.547Z,7.30
2019-01-14T11:33:58.899Z,6.47
2019-01-14T11:36:30.209Z,5.58
2019-01-14T11:39:05.119Z,4.05
2019-01-14T11:41:34.934Z,7.95
2019-01-14T11:44:06.341Z,6.22
2019-01-14T11:46:37.650Z,9.13
2019-01-14T11:49:08.964Z,9.85
2019-01-14T11:51:40.300Z,15.80
2019-01-14T11:54:11.701Z,10.10
2019-01-14T11:56:43.190Z,8.95
2019-01-14T11:59:14.496Z,7.90
2019-01-14T12:01:45.871Z,5.85
2019-01-14T12:04:17.232Z,8.28
2019-01-14T12:06:48.542Z,8.18
2019-01-14T12:09:19.865Z,6.65
2019-01-14T12:11:51.136Z,6.87
2019-01-14T12:14:22.613Z,13.95
2019-01-14T12:16:53.962Z,7.62
2019-01-14T12:19:25.316Z,7.10
2019-01-14T12:21:56.603Z,7.62
2019-01-14T12:24:28.041Z,7.20
2019-01-14T12:26:59.327Z,8.05
2019-01-14T12:29:30.667Z,9.08
2019-01-14T12:32:01.962Z,10.78
2019-01-14T12:34:33.260Z,9.68
2019-01-14T12:37:04.573Z,11.88
2019-01-14T12:39:35.897Z,12.60
2019-01-14T12:42:07.256Z,16.10
2019-01-14T12:44:38.552Z,10.25
2019-01-14T12:47:09.805Z,6.05
2019-01-14T12:49:41.156Z,4.08
2019-01-14T12:52:12.558Z,8.60
2019-01-14T12:54:43.980Z,5.42
2019-01-14T12:57:15.267Z,6.15
2019-01-14T12:59:46.623Z,7.85
2019-01-14T13:02:17.953Z,5.42
2019-01-14T13:04:49.280Z,8.43
2019-01-14T13:07:20.671Z,7.50
2019-01-14T13:09:51.963Z,8.15
2019-01-14T13:12:23.262Z,7.70
2019-01-14T13:14:54.606Z,6.67
2019-01-14T13:17:25.934Z,11.63
2019-01-14T13:19:57.208Z,8.88
2019-01-14T13:22:28.532Z,16.45
2019-01-14T13:24:59.908Z,18.23
2019-01-14T13:27:31.299Z,8.05
2019-01-14T13:30:08.352Z,18.42
2019-01-14T13:32:39.655Z,4.45
2019-01-14T13:35:11.055Z,11.70
2019-01-14T13:37:42.409Z,8.73
2019-01-14T13:40:13.978Z,4.75
2019-01-14T13:42:45.337Z,10.65
2019-01-14T13:45:19.430Z,4.78
2019-01-14T13:47:50.769Z,9.15
2019-01-14T13:53:13.726Z,7.75
2019-01-14T13:55:45.293Z,11.90
2019-01-14T13:58:16.680Z,8.83
2019-01-14T14:00:47.986Z,9.53
2019-01-14T14:03:19.270Z,7.42
2019-01-14T14:05:50.600Z,9.88
2019-01-14T14:08:22.000Z,5.25
2019-01-14T14:10:53.426Z,6.97
2019-01-14T14:13:24.826Z,10.03
2019-01-14T14:15:56.126Z,10.13
2019-01-14T14:18:27.408Z,9.70
2019-01-14T14:20:58.723Z,8.68
2019-01-14T14:23:30.004Z,5.62
2019-01-14T14:26:20.046Z,6.90
2019-01-14T14:28:51.350Z,6.87
2019-01-14T14:31:22.766Z,15.05
2019-01-14T14:33:54.106Z,12.65
2019-01-14T14:36:25.437Z,12.45
2019-01-14T14:38:56.913Z,14.85
2019-01-14T14:41:28.258Z,15.60
2019-01-14T14:43:59.664Z,15.93
2019-01-14T14:46:30.951Z,11.28
2019-01-14T14:49:02.246Z,10.08
2019-01-14T14:51:33.608Z,10.60
2019-01-14T14:54:04.875Z,4.92
2019-01-14T14:56:36.202Z,10.20
2019-01-14T14:59:07.494Z,11.53
2019-01-14T15:01:38.810Z,14.45
2019-01-14T15:04:10.087Z,12.30
2019-01-14T15:06:41.600Z,11.45
2019-01-14T15:09:12.994Z,10.32
2019-01-14T15:11:44.340Z,16.62
2019-01-14T15:14:15.918Z,10.25
2019-01-14T15:16:47.202Z,6.72
2019-01-14T15:19:18.487Z,6.28
2019-01-14T15:21:49.855Z,9.93
2019-01-14T15:24:21.136Z,12.25
2019-01-14T15:26:52.404Z,6.80
2019-01-14T15:29:23.704Z,5.35
2019-01-14T15:31:55.056Z,9.68
2019-01-14T15:34:26.371Z,8.30
2019-01-14T15:36:57.683Z,6.55
2019-01-14T15:39:28.997Z,11.70
2019-01-14T15:42:00.379Z,8.55
2019-01-14T15:44:31.741Z,13.08
2019-01-14T15:47:03.038Z,12.37
2019-01-14T15:49:34.417Z,11.55
2019-01-14T15:52:05.776Z,5.58
2019-01-14T15:54:37.201Z,10.32
2019-01-14T15:57:08.499Z,9.33
2019-01-14T15:59:40.166Z,7.53
2019-01-14T16:02:11.470Z,8.53
2019-01-14T16:04:42.760Z,11.63
2019-01-14T16:07:14.639Z,7.83
2019-01-14T16:09:45.939Z,7.22
2019-01-14T16:12:17.289Z,10.48
2019-01-14T16:14:48.573Z,8.35
2019-01-14T16:17:19.902Z,15.78
2019-01-14T16:19:51.288Z,13.28
2019-01-14T16:22:22.633Z,9.80
2019-01-14T16:24:54.215Z,9.13
2019-01-14T16:27:25.598Z,8.25
2019-01-14T16:29:57.004Z,15.63
2019-01-14T16:32:28.312Z,10.72
2019-01-14T16:34:59.589Z,12.10
2019-01-14T16:37:31.051Z,9.28
2019-01-14T16:40:05.032Z,14.20
2019-01-14T16:42:36.362Z,13.25
2019-01-14T16:45:14.887Z,11.35
2019-01-14T16:47:46.746Z,9.50
2019-01-14T16:50:18.077Z,11.68
2019-01-14T16:52:49.545Z,14.58
2019-01-14T16:55:22.767Z,12.63
2019-01-14T16:57:54.132Z,11.55
2019-01-14T17:00:25.443Z,11.93
2019-01-14T17:02:56.719Z,8.00
2019-01-14T17:05:28.057Z,11.48
2019-01-14T17:07:59.333Z,9.30
2019-01-14T17:10:31.021Z,13.38
2019-01-14T17:13:02.333Z,17.45
2019-01-14T17:15:33.610Z,12.68
2019-01-14T17:18:04.934Z,15.40
2019-01-14T17:20:36.200Z,19.57
2019-01-14T17:23:07.523Z,17.75
2019-01-14T17:25:38.906Z,19.87
2019-01-14T17:28:10.363Z,20.32
2019-01-14T17:30:43.548Z,17.50
2019-01-14T17:33:14.874Z,21.33
2019-01-14T17:35:48.850Z,18.15
2019-01-14T17:38:20.303Z,16.73
2019-01-14T17:40:51.678Z,14.70
2019-01-14T17:43:23.026Z,17.42
2019-01-14T17:45:54.469Z,22.70
2019-01-14T17:48:26.127Z,16.02
2019-01-14T17:50:57.439Z,21.42
2019-01-14T17:53:28.956Z,24.87
2019-01-14T17:56:00.349Z,21.68
2019-01-14T17:58:31.782Z,17.07
2019-01-14T18:01:03.269Z,22.95
2019-01-14T18:03:34.871Z,17.70
2019-01-14T18:06:06.266Z,14.55
2019-01-14T18:08:37.786Z,16.50
2019-01-14T18:11:09.232Z,15.75
2019-01-14T18:13:40.550Z,16.93
2019-01-14T18:16:11.865Z,14.00
2019-01-14T18:18:43.316Z,14.38
2019-01-14T18:21:14.717Z,14.38
2019-01-14T18:23:46.061Z,13.58
2019-01-14T18:26:17.359Z,12.23
2019-01-14T18:28:48.687Z,17.48
2019-01-14T18:31:20.465Z,10.75
2019-01-14T18:33:51.781Z,15.93
2019-01-14T18:36:23.212Z,17.15
2019-01-14T18:38:54.753Z,14.78
2019-01-14T18:41:26.042Z,20.52
2019-01-14T18:43:57.382Z,20.08
2019-01-14T18:46:28.656Z,24.50
2019-01-14T18:49:00.526Z,25.65
2019-01-14T18:51:31.827Z,20.70
2019-01-14T18:54:03.548Z,13.13
2019-01-14T18:56:34.850Z,14.83
2019-01-14T18:59:06.143Z,16.00
2019-01-14T19:01:37.449Z,16.87
2019-01-14T19:04:08.741Z,26.52
2019-01-14T19:06:40.072Z,31.75
2019-01-14T19:09:11.427Z,29.72
2019-01-14T19:11:42.739Z,28.45
2019-01-14T19:14:14.674Z,28.00
2019-01-14T19:16:46.017Z,31.40
2019-01-14T19:19:17.300Z,26.57
2019-01-14T19:21:48.708Z,24.00
2019-01-14T19:24:20.061Z,33.83
2019-01-14T19:26:51.337Z,28.57
2019-01-14T19:29:22.696Z,16.95
2019-01-14T19:32:12.355Z,23.27
2019-01-14T19:34:43.616Z,25.20
2019-01-14T19:37:14.927Z,16.20
2019-01-14T19:39:46.235Z,18.23
2019-01-14T19:42:17.668Z,25.68
2019-01-14T19:44:49.071Z,16.37
2019-01-14T19:47:20.368Z,14.43
2019-01-14T19:49:51.670Z,12.07
2019-01-14T19:52:22.957Z,16.77
2019-01-14T19:54:54.391Z,23.90
2019-01-14T19:57:25.650Z,15.30
2019-01-14T19:59:56.958Z,21.57
2019-01-14T20:02:28.239Z,20.27
2019-01-14T20:05:18.220Z,23.52
2019-01-14T20:07:50.403Z,20.45
2019-01-14T20:10:21.707Z,23.18
2019-01-14T20:12:52.982Z,38.73
2019-01-14T20:15:24.358Z,34.95
2019-01-14T20:17:55.829Z,34.13
2019-01-14T20:20:27.171Z,29.80
2019-01-14T20:22:58.626Z,28.47
2019-01-14T20:25:29.998Z,26.00
2019-01-14T20:28:01.276Z,33.33
2019-01-14T20:30:32.603Z,32.35
2019-01-14T20:33:03.871Z,32.15
2019-01-14T20:35:35.253Z,28.50
2019-01-14T20:38:06.675Z,29.12
2019-01-14T20:40:38.122Z,17.40
2019-01-14T20:43:09.605Z,19.67
2019-01-14T20:45:41.058Z,21.75
2019-01-14T20:48:12.401Z,20.00
2019-01-14T20:51:02.086Z,30.37
2019-01-14T20:53:33.434Z,33.75
2019-01-14T20:56:04.802Z,31.52
2019-01-14T20:58:36.147Z,40.90
2019-01-14T21:01:07.569Z,31.48
2019-01-14T21:03:38.937Z,40.95
2019-01-14T21:06:10.251Z,33.85
2019-01-14T21:08:43.483Z,26.02
2019-01-14T21:11:14.937Z,26.97
2019-01-14T21:13:46.238Z,21.52
2019-01-14T21:16:17.683Z,24.30
2019-01-14T21:18:48.999Z,19.73
2019-01-14T21:21:20.408Z,20.90
2019-01-14T21:24:10.326Z,17.07
2019-01-14T21:26:41.842Z,17.02
2019-01-14T21:29:13.144Z,11.38
2019-01-14T21:31:44.441Z,12.58
2019-01-14T21:34:16.720Z,12.20
2019-01-14T21:36:48.029Z,15.08
2019-01-14T21:39:20.184Z,12.28
2019-01-14T21:41:51.476Z,19.60
2019-01-14T21:44:22.840Z,13.98
2019-01-14T21:46:54.162Z,17.02
2019-01-14T21:49:25.480Z,16.93
2019-01-14T21:51:56.901Z,14.90
2019-01-14T21:54:28.363Z,13.00
2019-01-14T21:57:17.918Z,19.05
2019-01-14T21:59:49.349Z,13.93
2019-01-14T22:02:21.097Z,17.10
2019-01-14T22:04:53.422Z,11.90
2019-01-14T22:07:24.798Z,15.58
2019-01-14T22:09:56.130Z,15.03
2019-01-14T22:12:27.758Z,9.53
2019-01-14T22:14:59.145Z,13.10
2019-01-14T22:17:30.444Z,11.35
2019-01-14T22:20:12.155Z,9.25
2019-01-14T22:22:44.020Z,21.57
2019-01-14T22:25:17.845Z,15.23
2019-01-14T22:27:49.411Z,15.32
2019-01-14T22:30:24.670Z,14.83
2019-01-14T22:32:56.159Z,8.85
2019-01-14T22:35:27.504Z,14.25
2019-01-14T22:37:58.795Z,16.05
2019-01-14T22:40:30.136Z,13.62
2019-01-14T22:43:01.391Z,15.13
2019-01-14T22:45:33.053Z,14.55
2019-01-14T22:48:04.389Z,18.75
2019-01-14T22:50:35.978Z,10.50
2019-01-14T22:53:07.324Z,14.65
2019-01-14T22:55:38.799Z,12.98
2019-01-14T22:58:10.075Z,19.20
2019-01-14T23:00:57.659Z,13.88
2019-01-14T23:03:28.906Z,9.93
2019-01-14T23:06:02.293Z,11.95
2019-01-14T23:08:33.586Z,10.23
2019-01-14T23:11:05.262Z,15.58
2019-01-14T23:13:36.761Z,10.48
2019-01-14T23:16:08.152Z,11.80
2019-01-14T23:18:39.426Z,11.08
2019-01-14T23:21:11.606Z,10.25
2019-01-14T23:23:44.293Z,10.25
2019-01-14T23:26:15.669Z,13.83
2019-01-14T23:28:47.084Z,9.15
2019-01-14T23:31:18.387Z,14.25
2019-01-14T23:33:50.127Z,12.40
2019-01-14T23:36:21.851Z,18.50
2019-01-14T23:38:53.197Z,14.98
2019-01-14T23:41:24.580Z,15.18
2019-01-14T23:43:56.014Z,18.57
2019-01-14T23:46:27.321Z,17.25
2019-01-14T23:48:58.968Z,16.97
2019-01-14T23:51:30.430Z,20.50
2019-01-14T23:54:01.766Z,10.28
2019-01-14T23:56:33.056Z,13.22
2019-01-14T23:59:04.397Z,15.15
